Aiguafreda





Hora UTC 15:55
Temperatura 29.9 ºC
Sòl 15 cm 32.7 ºC
Humitat 38.8 %
Pressió 1017.8 hPa
Pluja 0.0 mm
Velocitat vent 9.2 km/h
Direcció vent SSE
Radiació solar 12.3 W/m²

Dades diàries 2020-07-05



Hora UTC (hivern +1h; estiu +2h)
Temperatura (ºC) Humitat (%) Pressió (hPa) Velocitat vent (km/h) Precipitació (mm) Radiació solar (W/m²)
Hora UTC Aire Sòl 15 cm Humitat Pressió Vel. Dir. Vel. Max Dir. Intent. màx 5 min. Rad. Sol.
00:05 16.9 16.0 94.9 1021.4 0.0 NNE 0.0 NW 0.0 0.0
00:10 16.8 16.0 94.7 1021.4 0.0 NNE 0.0 NW 0.0 0.0
00:15 16.7 15.9 94.8 1021.2 0.0 NNE 0.0 NW 0.0 0.0
00:20 16.7 15.9 94.9 1021.3 0.0 NNE 0.0 S 0.0 0.0
00:25 16.6 15.8 94.9 1021.1 0.0 NNE 0.0 NE 0.0 0.0
00:30 16.6 15.8 95.0 1021.2 0.0 NNE 0.0 SE 0.0 0.0
00:35 16.6 15.7 95.2 1021.2 0.0 NNE 0.0 S 0.0 0.0
00:40 16.6 15.8 95.2 1021.1 0.0 NNE 0.0 SSE 0.0 0.0
00:45 16.5 15.7 95.0 1020.9 0.0 NNE 0.0 WNW 0.0 0.0
00:50 16.5 15.6 95.0 1020.9 0.0 NNE 0.0 WNW 0.0 0.0
00:55 16.4 15.6 95.1 1020.9 0.0 NNE 0.0 WNW 0.0 0.0
01:00 16.4 15.6 95.3 1020.8 0.0 NNE 0.0 WNW 0.0 0.0
01:05 16.3 15.6 95.2 1020.7 0.0 NNE 0.0 WSW 0.0 0.0
01:10 16.3 15.5 95.3 1020.6 0.0 NNE 0.0 WSW 0.0 0.0
01:15 16.2 15.4 95.3 1020.7 0.0 NNE 0.0 WSW 0.0 0.0
01:20 16.2 15.4 95.4 1020.6 0.0 NNE 0.0 WSW 0.0 0.0
01:25 16.2 15.4 95.5 1020.7 0.0 NNE 0.0 WSW 0.0 0.0
01:30 16.3 15.4 95.7 1020.6 0.0 NNE 0.0 WSW 0.0 0.0
01:35 16.3 15.4 95.5 1020.5 0.0 NNE 0.0 WSW 0.0 0.0
01:40 16.2 15.4 95.5 1020.4 0.0 NNE 0.0 SE 0.0 0.0
01:45 16.2 15.3 95.5 1020.5 0.0 NNE 0.0 SSE 0.0 0.0
01:50 16.2 15.3 95.4 1020.4 0.0 NNE 0.0 SSE 0.0 0.0
01:55 16.1 15.2 95.4 1020.3 0.0 NNE 0.0 SSE 0.0 0.0
02:00 16.1 15.3 95.4 1020.3 0.0 NNE 0.0 SSE 0.0 0.0
02:05 16.1 15.3 95.4 1020.3 0.0 NNE 0.0 SSW 0.0 0.0
02:10 16.1 15.3 95.4 1020.2 0.0 NNE 0.0 SSE 0.0 0.0
02:15 16.1 15.2 95.2 1020.3 0.0 NNE 0.0 NW 0.0 0.0
02:20 16.0 15.1 95.3 1020.2 0.0 NNE 0.0 WNW 0.0 0.0
02:25 16.0 15.1 95.3 1020.2 0.0 NNE 0.0 WNW 0.0 0.0
02:30 15.9 15.1 95.3 1020.1 0.0 NNE 0.0 NW 0.0 0.0
02:35 15.9 15.1 95.4 1020.1 0.0 NNE 0.0 NW 0.0 0.0
02:40 15.9 15.0 95.4 1020.0 0.0 NNE 0.0 WSW 0.0 0.0
02:45 15.8 15.0 95.4 1020.1 0.0 NNE 0.0 WSW 0.0 0.0
02:50 15.9 15.0 95.5 1020.1 0.0 NNE 0.0 S 0.0 0.0
02:55 15.9 15.0 95.5 1020.1 0.0 NNE 0.0 SW 0.0 0.0
03:00 15.7 15.0 95.2 1020.2 0.0 NNE 0.0 SSE 0.0 0.0
03:05 15.6 14.9 95.1 1020.2 0.0 NNE 0.0 WNW 0.0 0.0
03:10 15.6 14.8 95.2 1020.0 0.0 NNE 0.0 WNW 0.0 0.0
03:15 15.5 14.8 95.3 1020.2 0.0 NNE 0.0 WNW 0.0 0.0
03:20 15.5 14.7 95.2 1020.0 0.0 NNE 0.0 SSW 0.0 0.0
03:25 15.4 14.7 95.0 1020.0 0.0 NNE 0.0 W 0.0 0.0
03:30 15.4 14.6 94.9 1020.2 0.0 NNE 0.0 WNW 0.0 0.0
03:35 15.3 14.5 94.7 1020.2 0.0 NNE 0.0 WSW 0.0 0.0
03:40 15.2 14.4 94.8 1020.1 0.0 NNE 0.0 WSW 0.0 0.0
03:45 15.1 14.3 95.0 1020.2 0.0 NNE 0.0 WSW 0.0 0.0
03:50 15.1 14.3 95.2 1020.2 0.0 NNE 0.0 WSW 0.0 0.0
03:55 15.1 14.3 95.3 1020.1 0.0 NNE 0.0 WSW 0.0 0.0
04:00 15.1 14.2 95.2 1020.1 0.0 NNE 0.0 SSW 0.0 0.0
04:05 15.0 14.2 95.0 1020.3 0.0 NNE 0.0 WNW 0.0 0.0
04:10 15.0 14.2 95.1 1020.3 0.0 NNE 0.0 WNW 0.0 0.0
04:15 14.9 14.1 95.1 1020.3 0.0 NNE 0.0 WNW 0.0 0.0
04:20 14.9 14.1 95.1 1020.3 0.0 NNE 0.0 WSW 0.0 0.0
04:25 14.8 14.1 95.0 1020.4 0.0 NNE 0.0 NW 0.0 0.0
04:30 14.8 14.0 95.1 1020.3 0.0 NNE 0.0 NW 0.0 0.0
04:35 14.8 14.0 95.2 1020.4 0.0 NNE 0.0 NW 0.0 0.0
04:40 14.7 14.0 95.1 1020.4 0.0 NNE 0.0 NNW 0.0 0.0
04:45 14.7 14.0 95.3 1020.3 0.0 NNE 0.0 NNW 0.0 0.0
04:50 14.7 14.0 95.3 1020.2 0.0 NNE 0.0 WSW 0.0 0.0
04:55 14.7 14.1 95.1 1020.2 0.0 NNE 0.0 WSW 0.0 0.0
05:00 14.7 14.1 95.2 1020.4 0.0 NNE 0.0 NW 0.0 0.0
05:05 14.8 14.1 95.3 1020.4 0.0 NNE 0.0 SW 0.0 0.0
05:10 14.8 14.1 95.2 1020.4 0.0 NNE 0.0 SW 0.0 0.0
05:15 14.9 14.2 95.2 1020.4 0.0 NNE 0.0 WSW 0.0 0.0
05:20 14.9 14.2 95.1 1020.5 0.0 NNE 0.0 SE 0.0 0.0
05:25 15.0 14.3 94.8 1020.5 0.0 NNE 0.0 SSE 0.0 0.0
05:30 15.0 14.4 94.9 1020.4 0.0 NNE 0.0 NE 0.0 0.0
05:35 15.2 14.4 95.0 1020.5 0.0 NNE 0.0 NNE 0.0 0.0
05:40 15.2 14.5 94.8 1020.5 0.0 NNE 0.0 NNE 0.0 0.0
05:45 15.3 14.6 94.6 1020.4 0.0 NNE 0.0 WNW 0.0 0.0
05:50 15.3 14.7 94.3 1020.5 0.0 NNE 0.0 WNW 0.0 0.0
05:55 15.4 14.8 94.2 1020.5 0.0 NNE 0.0 WNW 0.0 0.0
06:00 15.6 14.9 94.4 1020.4 0.0 NNE 0.0 SSW 0.0 0.0
06:05 15.7 15.0 94.2 1020.5 0.0 NNE 0.0 SSE 0.0 0.0
06:10 15.9 15.1 94.2 1020.6 0.0 NNE 0.0 S 0.0 0.0
06:15 16.1 15.3 94.3 1020.6 0.0 NNE 0.0 SE 0.0 0.0
06:20 16.3 15.5 94.2 1020.5 0.0 NNE 0.0 SE 0.0 0.0
06:25 16.6 15.6 94.0 1020.5 0.0 NNE 0.0 SE 0.0 0.0
06:30 16.8 15.8 94.1 1020.6 0.0 NNE 0.0 SE 0.0 0.0
06:35 17.1 16.1 93.9 1020.4 0.0 NNE 0.0 S 0.0 29.3
06:40 17.3 16.3 93.4 1020.4 0.0 NNE 0.0 S 0.0 5.4
06:45 17.8 16.8 92.6 1020.5 0.0 NNE 0.0 SE 0.0 4.3
06:50 18.3 17.6 90.5 1020.4 0.0 NNE 0.0 SSE 0.0 0.9
06:55 19.1 18.2 88.5 1020.4 2.4 NE 8.8 N 0.0 3.4
07:00 20.0 19.0 84.7 1020.6 4.4 ENE 8.8 ENE 0.0 3.6
07:05 20.6 19.5 82.4 1020.7 5.2 NE 14.2 NE 0.0 0.0
07:10 21.1 20.3 80.3 1020.6 4.0 ENE 8.8 NNE 0.0 47.0
07:15 21.5 21.0 77.8 1020.7 5.2 NE 11.5 NE 0.0 308.2
07:20 21.9 21.6 75.4 1020.6 4.1 NE 14.2 NNE 0.0 397.8
07:25 22.2 22.3 73.1 1020.6 5.1 NE 14.2 N 0.0 438.4
07:30 22.4 23.1 72.6 1020.7 5.8 NE 11.5 ENE 0.0 453.7
07:35 22.7 23.9 72.6 1020.8 2.7 NE 8.8 ENE 0.0 388.6
07:40 22.9 24.1 71.1 1020.7 3.9 NE 11.5 NNE 0.0 355.0
07:45 23.1 24.6 71.6 1020.9 4.4 NE 8.8 N 0.0 286.3
07:50 23.3 25.2 71.0 1020.8 3.4 NE 8.8 N 0.0 463.4
07:55 23.6 25.6 70.4 1020.8 4.0 NE 11.5 ENE 0.0 494.0
08:00 23.9 26.5 69.9 1020.8 3.6 NE 8.8 NE 0.0 364.6
08:05 24.2 27.1 68.9 1020.6 4.1 NE 8.8 N 0.0 320.3
08:10 24.4 27.3 67.9 1020.7 4.1 ENE 11.5 NNE 0.0 267.0
08:15 24.5 27.8 67.1 1020.7 3.5 NNE 8.8 NNW 0.0 342.3
08:20 24.6 27.9 66.1 1020.6 2.2 N 8.8 W 0.0 403.8
08:25 25.0 28.6 63.6 1020.4 1.3 NNE 6.1 NNE 0.0 473.3
08:30 25.2 29.4 62.2 1020.5 0.4 SSW 6.1 WSW 0.0 237.3
08:35 25.8 30.5 61.1 1020.4 0.9 ESE 6.1 E 0.0 238.1
08:40 26.0 30.6 57.4 1020.5 3.3 ESE 6.1 ESE 0.0 236.0
08:45 26.2 30.6 54.9 1020.4 2.5 E 6.1 ESE 0.0 141.4
08:50 26.5 31.7 54.1 1020.2 1.2 ENE 6.1 NNE 0.0 149.4
08:55 26.7 32.1 52.9 1020.3 2.1 S 8.8 SSE 0.0 265.3
09:00 26.8 32.2 50.9 1020.3 0.1 SSW 3.4 S 0.0 394.1
09:05 27.1 32.5 51.2 1020.3 1.8 S 6.1 SSW 0.0 341.5
09:10 27.4 32.6 48.0 1020.1 4.1 SE 8.8 SSE 0.0 72.4
09:15 27.6 32.9 46.3 1020.0 3.3 SE 8.8 SE 0.0 44.8
09:20 28.0 33.5 47.8 1020.0 6.3 SE 8.8 SE 0.0 27.3
09:25 27.9 32.6 46.1 1020.0 5.5 SSE 11.5 SSE 0.0 25.2
09:30 27.8 32.8 46.9 1020.1 4.3 SSE 11.5 S 0.0 28.6
09:35 27.8 32.4 46.1 1020.1 5.4 SSE 11.5 SE 0.0 32.6
09:40 28.1 32.5 45.7 1020.2 7.6 SSE 14.2 SSE 0.0 108.3
09:45 28.2 32.5 44.1 1020.2 8.9 SSE 14.2 S 0.0 101.8
09:50 28.4 32.7 42.2 1020.1 7.3 SSE 14.2 SSE 0.0 70.8
09:55 28.3 32.6 40.5 1020.2 8.7 SSE 16.9 SSE 0.0 73.2
10:00 28.5 33.0 38.6 1020.1 8.5 SSE 14.2 S 0.0 78.3
10:05 28.6 33.1 39.2 1020.0 8.3 SE 16.9 SE 0.0 93.1
10:10 28.7 33.3 39.1 1020.1 7.6 SSE 14.2 SSE 0.0 90.2
10:15 29.0 33.3 37.6 1020.0 7.6 SSE 16.9 SE 0.0 81.4
10:20 29.0 33.3 36.9 1020.0 8.5 SSE 16.9 SSE 0.0 83.7
10:25 29.0 33.4 36.8 1020.1 7.7 SSE 14.2 SSE 0.0 113.2
10:30 29.1 33.3 36.5 1019.9 8.9 SSE 16.9 SW 0.0 111.4
10:35 29.0 33.0 36.5 1020.0 9.9 SE 19.6 SSE 0.0 111.4
10:40 29.3 33.7 37.9 1020.0 10.4 SE 19.6 SE 0.0 113.2
10:45 29.5 33.7 37.6 1019.9 9.5 SE 19.6 S 0.0 131.8
10:50 29.4 33.6 36.7 1019.9 8.8 SE 19.6 ESE 0.0 109.1
10:55 29.4 33.5 36.2 1020.0 10.0 SSE 22.3 SSE 0.0 105.0
11:00 29.5 34.0 37.6 1019.9 8.2 SE 14.2 ESE 0.0 124.3
11:05 29.5 33.6 36.9 1019.9 10.7 SSE 19.6 SSE 0.0 130.7
11:10 29.4 33.5 36.2 1019.8 9.8 SSE 19.6 S 0.0 107.6
11:15 29.5 33.5 36.2 1019.7 11.9 SE 22.3 SSE 0.0 117.4
11:20 29.7 33.9 36.1 1019.8 7.6 SE 16.9 ESE 0.0 141.8
11:25 29.7 33.7 35.6 1019.7 10.7 SSE 25.0 SE 0.0 190.4
11:30 29.7 33.7 36.6 1019.6 12.4 SE 22.3 SSE 0.0 175.8
11:35 29.9 33.9 36.5 1019.6 9.0 SE 16.9 SSE 0.0 190.7
11:40 30.3 34.3 34.6 1019.5 10.2 SE 19.6 SSE 0.0 192.5
11:45 30.1 34.0 35.5 1019.7 9.0 SSE 16.9 S 0.0 181.9
11:50 30.2 34.5 36.6 1019.5 10.1 SSE 19.6 SE 0.0 188.0
11:55 30.1 34.3 35.6 1019.2 8.1 SSW 14.2 S 0.0 205.8
12:00 30.4 34.5 36.1 1019.5 7.9 S 16.9 S 0.0 219.9
12:05 30.4 34.6 36.9 1019.3 8.7 SSE 22.3 SW 0.0 246.0
12:10 30.5 34.7 37.8 1019.5 8.1 SSW 16.9 S 0.0 343.1
12:15 30.4 34.7 37.9 1019.4 10.5 SSE 19.6 SE 0.0 274.2
12:20 30.3 34.4 37.8 1019.2 8.6 SSE 14.2 S 0.0 369.2
12:25 30.3 34.7 38.9 1019.3 9.5 SSE 19.6 SE 0.0 411.7
12:30 30.2 34.6 38.5 1019.2 8.6 S 19.6 SE 0.0 305.6
12:35 30.2 34.5 39.7 1019.3 7.7 SE 19.6 SSE 0.0 314.3
12:40 30.7 35.5 39.4 1019.0 7.7 SE 16.9 SE 0.0 260.0
12:45 30.7 35.1 39.1 1019.1 10.1 SSE 19.6 SSE 0.0 279.4
12:50 30.5 34.8 39.1 1019.1 11.0 SSE 19.6 SSE 0.0 366.4
12:55 30.5 35.2 39.7 1019.1 7.7 SE 16.9 SSE 0.0 457.4
13:00 30.5 35.0 39.4 1019.0 10.7 SSE 19.6 SSE 0.0 172.8
13:05 30.5 34.7 39.8 1019.0 8.0 SE 16.9 SE 0.0 150.5
13:10 30.8 35.5 40.8 1018.8 7.8 SE 19.6 ESE 0.0 160.0
13:15 31.1 35.6 40.0 1019.0 9.6 SSE 19.6 SSE 0.0 203.2
13:20 30.7 34.8 39.8 1018.9 8.7 SSE 16.9 S 0.0 157.9
13:25 30.6 34.8 40.6 1018.8 8.5 SSE 19.6 S 0.0 123.9
13:30 30.5 34.7 40.9 1018.7 10.6 SSE 19.6 SSE 0.0 108.6
13:35 30.6 34.8 42.3 1018.6 9.2 SSE 16.9 SE 0.0 193.6
13:40 30.6 34.7 42.5 1018.7 10.9 SSE 19.6 S 0.0 182.7
13:45 30.5 34.6 42.9 1018.6 10.7 SSE 19.6 SE 0.0 147.9
13:50 30.4 34.4 43.4 1018.7 11.8 SE 25.0 S 0.0 118.9
13:55 30.4 34.3 43.0 1018.4 12.5 SE 22.3 SSE 0.0 133.1
14:00 30.4 34.1 42.6 1018.4 13.5 SSE 25.0 SSE 0.0 130.7
14:05 30.1 33.3 43.2 1018.5 13.9 SE 25.0 SE 0.0 137.4
14:10 30.1 33.7 44.1 1018.4 10.6 SE 19.6 SE 0.0 129.0
14:15 30.2 33.9 42.5 1018.5 12.0 SSE 22.3 S 0.0 156.1
14:20 30.2 33.8 42.8 1018.2 12.6 SE 19.6 S 0.0 151.4
14:25 30.4 33.9 42.4 1018.5 11.7 SE 19.6 ESE 0.0 111.8
14:30 30.4 33.7 41.7 1018.5 11.4 SSE 19.6 SE 0.0 88.3
14:35 30.2 33.6 41.7 1018.3 9.8 SSE 22.3 S 0.0 65.5
14:40 30.4 34.0 41.0 1018.3 10.8 SE 22.3 SSE 0.0 47.7
14:45 30.4 34.0 39.7 1018.2 10.0 SSE 19.6 ESE 0.0 46.8
14:50 30.3 33.9 40.1 1018.1 9.8 SSE 19.6 S 0.0 40.2
14:55 30.4 34.1 39.7 1018.2 8.5 SSE 19.6 SSE 0.0 26.8
15:00 30.4 34.0 38.9 1018.2 8.8 SE 16.9 SSE 0.0 60.9
15:05 30.7 34.7 39.2 1017.9 11.7 SE 27.7 SSE 0.0 58.5
15:10 30.5 34.1 39.2 1018.1 10.6 SSE 22.3 SE 0.0 26.9
15:15 30.2 33.7 38.3 1018.0 10.3 SSW 19.6 SSW 0.0 4.9
15:20 30.2 33.7 39.8 1017.8 8.6 S 19.6 SSE 0.0 8.4
15:25 30.5 34.3 38.9 1017.9 9.3 SSE 22.3 SSE 0.0 0.7
15:30 30.3 33.5 38.5 1018.0 9.9 SSE 22.3 S 0.0 11.1
15:35 30.2 33.5 38.8 1018.0 10.6 SSE 19.6 SE 0.0 26.7
15:40 30.3 33.6 38.5 1018.0 10.3 SE 16.9 SE 0.0 48.0
15:45 30.0 33.0 38.0 1017.9 10.9 SSE 16.9 SSE 0.0 36.2
15:50 29.9 33.0 39.2 1017.8 10.2 SE 19.6 SE 0.0 19.7
15:55 29.9 32.7 38.8 1017.8 9.2 SSE 16.9 SSE 0.0 12.3
Màxima 31.2 35.6 95.7 1021.4 13.9 SE 27.7 SSE 0.0 494.0
Mínima 14.7 14.0 34.6 1017.8
Total 0.0